createdAt,value
2023-04-16T00:00:19.677Z,8.61
2023-04-16T00:01:20.043Z,8.61
2023-04-16T00:02:20.504Z,8.61
2023-04-16T00:03:20.929Z,8.60
2023-04-16T00:04:21.178Z,8.58
2023-04-16T00:05:21.432Z,8.63
2023-04-16T00:06:21.788Z,8.58
2023-04-16T00:07:22.132Z,8.58
2023-04-16T00:08:22.478Z,8.55
2023-04-16T00:09:22.822Z,8.55
2023-04-16T00:10:23.160Z,8.53
2023-04-16T00:11:23.532Z,8.53
2023-04-16T00:12:23.964Z,8.52
2023-04-16T00:13:24.202Z,8.51
2023-04-16T00:14:24.558Z,8.49
2023-04-16T00:15:24.898Z,8.52
2023-04-16T00:16:25.306Z,8.49
2023-04-16T00:17:25.644Z,8.45
2023-04-16T00:18:25.930Z,8.45
2023-04-16T00:19:26.282Z,8.44
2023-04-16T00:20:26.632Z,8.42
2023-04-16T00:21:27.037Z,8.41
2023-04-16T00:22:27.340Z,8.41
2023-04-16T00:23:27.686Z,8.41
2023-04-16T00:24:28.029Z,8.42
2023-04-16T00:25:28.363Z,8.38
2023-04-16T00:26:28.723Z,8.36
2023-04-16T00:27:29.083Z,8.36
2023-04-16T00:28:29.410Z,8.33
2023-04-16T00:29:29.758Z,8.31
2023-04-16T00:30:30.098Z,8.30
2023-04-16T00:31:30.695Z,8.27
2023-04-16T00:32:30.835Z,8.27
2023-04-16T00:33:31.117Z,8.27
2023-04-16T00:34:31.456Z,8.23
2023-04-16T00:35:31.792Z,8.23
2023-04-16T00:36:32.154Z,8.20
2023-04-16T00:37:32.751Z,8.19
2023-04-16T00:38:32.814Z,8.18
2023-04-16T00:39:33.155Z,8.18
2023-04-16T00:40:33.493Z,8.20
2023-04-16T00:41:33.883Z,8.23
2023-04-16T00:42:34.195Z,8.20
2023-04-16T00:43:34.533Z,8.20
2023-04-16T00:44:34.926Z,8.23
2023-04-16T00:45:35.253Z,8.20
2023-04-16T00:46:35.655Z,8.23
2023-04-16T00:47:35.960Z,8.23
2023-04-16T00:48:36.279Z,8.23
2023-04-16T00:49:36.620Z,8.24
2023-04-16T00:50:36.976Z,8.24
2023-04-16T00:51:37.334Z,8.24
2023-04-16T00:52:37.682Z,8.23
2023-04-16T00:53:38.042Z,8.19
2023-04-16T00:54:38.392Z,8.19
2023-04-16T00:55:38.746Z,8.19
2023-04-16T00:56:39.091Z,8.20
2023-04-16T00:57:39.433Z,8.19
2023-04-16T00:58:39.785Z,8.20
2023-04-16T00:59:40.135Z,8.18
2023-04-16T01:00:40.478Z,8.18
2023-04-16T01:01:40.919Z,8.16
2023-04-16T01:02:41.243Z,8.15
2023-04-16T01:03:41.615Z,8.13
2023-04-16T01:04:41.904Z,8.16
2023-04-16T01:05:42.217Z,8.16
2023-04-16T01:06:42.653Z,8.19
2023-04-16T01:07:42.911Z,8.20
2023-04-16T01:08:43.277Z,8.19
2023-04-16T01:09:43.615Z,8.20
2023-04-16T01:10:43.972Z,8.23
2023-04-16T01:11:44.336Z,8.23
2023-04-16T01:12:44.666Z,8.23
2023-04-16T01:13:45.020Z,8.20
2023-04-16T01:14:45.357Z,8.20
2023-04-16T01:15:45.799Z,8.20
2023-04-16T01:16:46.076Z,8.18
2023-04-16T01:17:46.474Z,8.20
2023-04-16T01:18:46.783Z,8.23
2023-04-16T01:19:47.135Z,8.23
2023-04-16T01:20:47.474Z,8.26
2023-04-16T01:21:47.858Z,8.24
2023-04-16T01:22:48.159Z,8.26
2023-04-16T01:23:48.503Z,8.26
2023-04-16T01:24:48.860Z,8.26
2023-04-16T01:25:49.187Z,8.26
2023-04-16T01:26:49.559Z,8.24
2023-04-16T01:27:49.888Z,8.26
2023-04-16T01:28:50.225Z,8.24
2023-04-16T01:29:50.571Z,8.24
2023-04-16T01:30:50.915Z,8.23
2023-04-16T01:31:51.384Z,8.20
2023-04-16T01:32:51.683Z,8.24
2023-04-16T01:33:51.989Z,8.20
2023-04-16T01:34:52.330Z,8.23
2023-04-16T01:35:52.665Z,8.23
2023-04-16T01:36:53.033Z,8.20
2023-04-16T01:37:53.370Z,8.24
2023-04-16T01:38:53.743Z,8.24
2023-04-16T01:39:54.055Z,8.27
2023-04-16T01:40:54.401Z,8.31
2023-04-16T01:41:54.757Z,8.30
2023-04-16T01:42:55.102Z,8.28
2023-04-16T01:43:55.450Z,8.28
2023-04-16T01:44:55.795Z,8.30
2023-04-16T01:45:56.132Z,8.28
2023-04-16T01:46:56.526Z,8.27
2023-04-16T01:47:56.866Z,8.26
2023-04-16T01:48:57.196Z,8.26
2023-04-16T01:49:57.532Z,8.26
2023-04-16T01:50:57.865Z,8.23
2023-04-16T01:51:58.218Z,8.24
2023-04-16T01:52:58.567Z,8.23
2023-04-16T01:53:58.916Z,8.23
2023-04-16T01:54:59.252Z,8.23
2023-04-16T01:55:59.617Z,8.20
2023-04-16T01:56:59.964Z,8.19
2023-04-16T01:58:00.291Z,8.23
2023-04-16T01:59:00.656Z,8.23
2023-04-16T02:00:00.986Z,8.23
2023-04-16T02:01:01.364Z,8.23
2023-04-16T02:02:01.759Z,8.24
2023-04-16T02:03:02.256Z,8.28
2023-04-16T02:04:02.401Z,8.28
2023-04-16T02:05:02.740Z,8.27
2023-04-16T02:06:03.067Z,8.30
2023-04-16T02:07:03.426Z,8.28
2023-04-16T02:08:03.761Z,8.30
2023-04-16T02:09:04.105Z,8.30
2023-04-16T02:10:04.452Z,8.30
2023-04-16T02:11:04.782Z,8.28
2023-04-16T02:12:05.146Z,8.28
2023-04-16T02:13:05.483Z,8.30
2023-04-16T02:14:05.834Z,8.30
2023-04-16T02:15:06.164Z,8.28
2023-04-16T02:16:06.542Z,8.28
2023-04-16T02:17:06.886Z,8.28
2023-04-16T02:18:07.265Z,8.27
2023-04-16T02:19:07.732Z,8.26
2023-04-16T02:20:07.931Z,8.27
2023-04-16T02:21:08.282Z,8.28
2023-04-16T02:22:08.674Z,8.30
2023-04-16T02:23:08.990Z,8.28
2023-04-16T02:24:09.300Z,8.28
2023-04-16T02:25:09.639Z,8.27
2023-04-16T02:26:09.996Z,8.27
2023-04-16T02:27:10.353Z,8.27
2023-04-16T02:28:10.687Z,8.28
2023-04-16T02:29:11.264Z,8.26
2023-04-16T02:30:11.388Z,8.28
2023-04-16T02:31:11.751Z,8.26
2023-04-16T02:32:12.137Z,8.28
2023-04-16T02:33:12.464Z,8.28
2023-04-16T02:34:12.840Z,8.28
2023-04-16T02:35:13.148Z,8.30
2023-04-16T02:36:13.491Z,8.30
2023-04-16T02:37:13.850Z,8.30
2023-04-16T02:38:14.178Z,8.30
2023-04-16T02:39:14.529Z,8.28
2023-04-16T02:40:14.891Z,8.30
2023-04-16T02:41:15.247Z,8.30
2023-04-16T02:42:15.608Z,8.31
2023-04-16T02:43:15.917Z,8.30
2023-04-16T02:44:16.265Z,8.31
2023-04-16T02:45:16.634Z,8.30
2023-04-16T02:46:17.019Z,8.30
2023-04-16T02:47:17.352Z,8.28
2023-04-16T02:48:17.660Z,8.28
2023-04-16T02:49:17.985Z,8.27
2023-04-16T02:50:18.335Z,8.28
2023-04-16T02:51:18.687Z,8.28
2023-04-16T02:52:19.027Z,8.28
2023-04-16T02:53:19.369Z,8.28
2023-04-16T02:54:19.703Z,8.27
2023-04-16T02:55:20.052Z,8.27
2023-04-16T02:56:20.435Z,8.28
2023-04-16T02:57:20.754Z,8.28
2023-04-16T02:58:21.090Z,8.28
2023-04-16T02:59:21.450Z,8.30
2023-04-16T03:00:21.775Z,8.28
2023-04-16T03:01:22.192Z,8.27
2023-04-16T03:02:22.569Z,8.27
2023-04-16T03:03:22.904Z,8.27
2023-04-16T03:04:23.239Z,8.26
2023-04-16T03:05:23.581Z,8.23
2023-04-16T03:06:23.907Z,8.23
2023-04-16T03:07:24.269Z,8.20
2023-04-16T03:08:24.603Z,8.23
2023-04-16T03:09:24.943Z,8.23
2023-04-16T03:10:25.279Z,8.20
2023-04-16T03:11:25.627Z,8.19
2023-04-16T03:12:25.996Z,8.19
2023-04-16T03:13:26.353Z,8.19
2023-04-16T03:14:26.697Z,8.19
2023-04-16T03:15:27.092Z,8.18
2023-04-16T03:16:27.380Z,8.16
2023-04-16T03:17:27.760Z,8.18
2023-04-16T03:18:28.086Z,8.18
2023-04-16T03:19:28.436Z,8.18
2023-04-16T03:20:28.765Z,8.16
2023-04-16T03:21:29.110Z,8.18
2023-04-16T03:22:29.486Z,8.18
2023-04-16T03:23:29.793Z,8.18
2023-04-16T03:24:30.133Z,8.18
2023-04-16T03:25:30.481Z,8.18
2023-04-16T03:26:30.846Z,8.18
2023-04-16T03:27:31.199Z,8.18
2023-04-16T03:28:31.542Z,8.16
2023-04-16T03:29:31.873Z,8.16
2023-04-16T03:30:32.220Z,8.15
2023-04-16T03:31:32.573Z,8.18
2023-04-16T03:32:32.945Z,8.18
2023-04-16T03:33:33.252Z,8.19
2023-04-16T03:34:33.606Z,8.20
2023-04-16T03:35:33.963Z,8.23
2023-04-16T03:36:34.302Z,8.23
2023-04-16T03:37:34.654Z,8.19
2023-04-16T03:38:34.999Z,8.20
2023-04-16T03:39:35.328Z,8.20
2023-04-16T03:40:35.677Z,8.20
2023-04-16T03:41:36.012Z,8.23
2023-04-16T03:42:36.365Z,8.24
2023-04-16T03:43:36.718Z,8.24
2023-04-16T03:44:37.060Z,8.24
2023-04-16T03:45:37.417Z,8.26
2023-04-16T03:46:37.779Z,8.24
2023-04-16T03:47:38.188Z,8.23
2023-04-16T03:48:38.514Z,8.23
2023-04-16T03:49:38.857Z,8.20
2023-04-16T03:50:39.186Z,8.20
2023-04-16T03:51:39.554Z,8.20
2023-04-16T03:52:39.963Z,8.20
2023-04-16T03:53:40.183Z,8.20
2023-04-16T03:54:40.440Z,8.19
2023-04-16T03:55:40.732Z,8.19
2023-04-16T03:56:41.016Z,8.19
2023-04-16T03:57:41.272Z,8.16
2023-04-16T03:58:41.514Z,8.19
2023-04-16T03:59:41.807Z,8.19
2023-04-16T04:00:42.097Z,8.20
2023-04-16T04:01:42.377Z,8.19
2023-04-16T04:02:42.853Z,8.20
2023-04-16T04:03:43.098Z,8.19
2023-04-16T04:04:43.284Z,8.19
2023-04-16T04:05:43.503Z,8.19
2023-04-16T04:06:43.769Z,8.19
2023-04-16T04:07:44.092Z,8.18
2023-04-16T04:08:44.336Z,8.19
2023-04-16T04:09:44.632Z,8.19
2023-04-16T04:10:44.910Z,8.16
2023-04-16T04:11:45.202Z,8.15
2023-04-16T04:12:45.503Z,8.13
2023-04-16T04:13:45.770Z,8.12
2023-04-16T04:14:46.029Z,8.13
2023-04-16T04:15:46.326Z,8.12
2023-04-16T04:16:46.525Z,8.09
2023-04-16T04:17:46.870Z,8.10
2023-04-16T04:18:46.943Z,8.12
2023-04-16T04:19:58.083Z,8.09
2023-04-16T04:20:47.380Z,8.09
2023-04-16T04:21:47.650Z,8.09
2023-04-16T04:22:47.892Z,8.08
2023-04-16T04:23:48.105Z,8.08
2023-04-16T04:24:48.412Z,8.08
2023-04-16T04:25:48.744Z,8.08
2023-04-16T04:26:48.984Z,8.08
2023-04-16T04:27:49.267Z,8.08
2023-04-16T04:28:49.576Z,8.06
2023-04-16T04:29:49.828Z,8.08
2023-04-16T04:30:50.121Z,8.08
2023-04-16T04:31:50.347Z,8.09
2023-04-16T04:32:50.761Z,8.09
2023-04-16T04:33:50.724Z,8.08
2023-04-16T04:34:50.895Z,8.09
2023-04-16T04:35:51.180Z,8.06
2023-04-16T04:36:51.479Z,8.09
2023-04-16T04:37:51.760Z,8.09
2023-04-16T04:38:51.945Z,8.08
2023-04-16T04:39:52.343Z,8.09
2023-04-16T04:40:52.484Z,8.09
2023-04-16T04:41:52.772Z,8.08
2023-04-16T04:42:53.090Z,8.09
2023-04-16T04:43:53.372Z,8.08
2023-04-16T04:44:53.672Z,8.06
2023-04-16T04:45:54.012Z,8.08
2023-04-16T04:46:54.132Z,8.06
2023-04-16T04:47:54.485Z,8.08
2023-04-16T04:48:54.731Z,8.09
2023-04-16T04:49:55.006Z,8.09
2023-04-16T04:50:55.303Z,8.09
2023-04-16T04:51:55.603Z,8.09
2023-04-16T04:52:55.798Z,8.10
2023-04-16T04:53:56.225Z,8.09
2023-04-16T04:54:56.264Z,8.10
2023-04-16T04:55:58.809Z,8.12
2023-04-16T04:56:56.710Z,8.09
2023-04-16T04:57:56.889Z,8.12
2023-04-16T04:58:57.052Z,8.12
2023-04-16T04:59:57.218Z,8.15
2023-04-16T05:00:57.420Z,8.15
2023-04-16T05:01:57.578Z,8.13
2023-04-16T05:02:57.920Z,8.12
2023-04-16T05:03:58.092Z,8.13
2023-04-16T05:04:58.357Z,8.12
2023-04-16T05:05:58.621Z,8.13
2023-04-16T05:06:58.786Z,8.13
2023-04-16T05:07:58.992Z,8.13
2023-04-16T05:08:59.121Z,8.15
2023-04-16T05:09:59.300Z,8.15
2023-04-16T05:10:59.480Z,8.13
2023-04-16T05:11:59.639Z,8.13
2023-04-16T05:12:59.842Z,8.15
2023-04-16T05:13:59.995Z,8.15
2023-04-16T05:15:00.210Z,8.15
2023-04-16T05:16:00.340Z,8.13
2023-04-16T05:17:00.602Z,8.16
2023-04-16T05:18:00.865Z,8.18
2023-04-16T05:19:00.968Z,8.18
2023-04-16T05:20:01.182Z,8.18
2023-04-16T05:21:01.325Z,8.20
2023-04-16T05:22:01.504Z,8.19
2023-04-16T05:23:01.745Z,8.20
2023-04-16T05:24:01.973Z,8.23
2023-04-16T05:25:02.265Z,8.20
2023-04-16T05:26:02.451Z,8.23
2023-04-16T05:27:02.609Z,8.23
2023-04-16T05:28:02.829Z,8.24
2023-04-16T05:29:03.109Z,8.24
2023-04-16T05:30:03.280Z,8.23
2023-04-16T05:31:03.473Z,8.26
2023-04-16T05:32:03.585Z,8.24
2023-04-16T05:33:03.908Z,8.26
2023-04-16T05:34:04.072Z,8.27
2023-04-16T05:35:04.240Z,8.27
2023-04-16T05:36:04.403Z,8.28
2023-04-16T05:37:04.574Z,8.28
2023-04-16T05:38:04.768Z,8.30
2023-04-16T05:39:04.907Z,8.30
2023-04-16T05:40:05.122Z,8.31
2023-04-16T05:41:05.274Z,8.31
2023-04-16T05:42:05.434Z,8.30
2023-04-16T05:43:05.765Z,8.31
2023-04-16T05:44:05.906Z,8.33
2023-04-16T05:45:06.091Z,8.34
2023-04-16T05:46:07.935Z,8.37
2023-04-16T05:47:06.529Z,8.36
2023-04-16T05:48:06.711Z,8.38
2023-04-16T05:49:06.919Z,8.36
2023-04-16T05:50:07.044Z,8.37
2023-04-16T05:51:07.222Z,8.41
2023-04-16T05:52:07.514Z,8.42
2023-04-16T05:53:07.583Z,8.41
2023-04-16T05:54:07.850Z,8.42
2023-04-16T05:55:08.017Z,8.44
2023-04-16T05:56:08.184Z,8.44
2023-04-16T05:57:08.512Z,8.44
2023-04-16T05:58:08.669Z,8.44
2023-04-16T05:59:09.076Z,8.45
2023-04-16T06:00:09.027Z,8.46
2023-04-16T06:01:09.166Z,8.46
2023-04-16T06:02:09.470Z,8.46
2023-04-16T06:03:09.719Z,8.46
2023-04-16T06:04:09.844Z,8.48
2023-04-16T06:05:10.056Z,8.48
2023-04-16T06:06:10.143Z,8.49
2023-04-16T06:07:10.303Z,8.51
2023-04-16T06:08:10.507Z,8.51
2023-04-16T06:09:11.025Z,8.52
2023-04-16T06:10:10.961Z,8.53
2023-04-16T06:11:11.123Z,8.53
2023-04-16T06:12:11.314Z,8.55
2023-04-16T06:13:11.503Z,8.55
2023-04-16T06:14:11.663Z,8.58
2023-04-16T06:15:11.842Z,8.56
2023-04-16T06:16:12.068Z,8.60
2023-04-16T06:17:12.206Z,8.61
2023-04-16T06:18:12.421Z,8.61
2023-04-16T06:19:12.596Z,8.60
2023-04-16T06:20:12.751Z,8.63
2023-04-16T06:21:12.925Z,8.64
2023-04-16T06:22:13.229Z,8.66
2023-04-16T06:23:13.436Z,8.67
2023-04-16T06:24:13.699Z,8.67
2023-04-16T06:25:15.197Z,8.69
2023-04-16T06:26:14.037Z,8.71
2023-04-16T06:27:14.336Z,8.71
2023-04-16T06:28:14.655Z,8.71
2023-04-16T06:29:14.877Z,8.73
2023-04-16T06:30:15.128Z,8.73
2023-04-16T06:31:15.456Z,8.74
2023-04-16T06:32:15.625Z,8.76
2023-04-16T06:33:15.848Z,8.74
2023-04-16T06:34:16.237Z,8.74
2023-04-16T06:35:16.283Z,8.79
2023-04-16T06:36:16.597Z,8.79
2023-04-16T06:37:16.802Z,8.79
2023-04-16T06:38:16.980Z,8.76
2023-04-16T06:39:17.123Z,8.78
2023-04-16T06:40:17.315Z,8.78
2023-04-16T06:41:17.503Z,8.78
2023-04-16T06:42:17.787Z,8.81
2023-04-16T06:43:17.987Z,8.79
2023-04-16T06:44:18.132Z,8.79
2023-04-16T06:45:18.431Z,8.79
2023-04-16T06:46:18.645Z,8.81
2023-04-16T06:47:18.861Z,8.81
2023-04-16T06:48:19.106Z,8.81
2023-04-16T06:49:19.400Z,8.81
2023-04-16T06:50:19.665Z,8.81
2023-04-16T06:51:19.860Z,8.82
2023-04-16T06:52:20.044Z,8.82
2023-04-16T06:53:20.239Z,8.82
2023-04-16T06:54:20.516Z,8.84
2023-04-16T06:55:20.822Z,8.85
2023-04-16T06:56:21.101Z,8.87
2023-04-16T06:57:21.404Z,8.87
2023-04-16T06:58:21.728Z,8.88
2023-04-16T06:59:22.005Z,8.89
2023-04-16T07:00:22.302Z,8.91
2023-04-16T07:01:22.629Z,8.92
2023-04-16T07:02:23.013Z,8.94
2023-04-16T07:03:23.473Z,8.97
2023-04-16T07:04:23.637Z,9.00
2023-04-16T07:05:23.811Z,9.02
2023-04-16T07:06:24.094Z,9.06
2023-04-16T07:07:24.387Z,9.08
2023-04-16T07:08:24.719Z,9.13
2023-04-16T07:09:24.993Z,9.13
2023-04-16T07:10:25.188Z,9.13
2023-04-16T07:11:25.494Z,9.13
2023-04-16T07:12:25.656Z,9.16
2023-04-16T07:13:25.963Z,9.16
2023-04-16T07:14:26.141Z,9.14
2023-04-16T07:15:26.326Z,9.18
2023-04-16T07:16:26.649Z,9.13
2023-04-16T07:17:26.806Z,9.13
2023-04-16T07:18:26.984Z,9.16
2023-04-16T07:19:27.293Z,9.16
2023-04-16T07:20:28.109Z,9.18
2023-04-16T07:21:27.751Z,9.21
2023-04-16T07:22:28.044Z,9.19
2023-04-16T07:23:28.398Z,9.19
2023-04-16T07:24:28.653Z,9.22
2023-04-16T07:25:28.947Z,9.23
2023-04-16T07:26:29.248Z,9.25
2023-04-16T07:27:29.544Z,9.26
2023-04-16T07:28:29.868Z,9.26
2023-04-16T07:29:30.049Z,9.28
2023-04-16T07:30:30.336Z,9.28
2023-04-16T07:31:30.523Z,9.28
2023-04-16T07:32:30.849Z,9.31
2023-04-16T07:33:31.006Z,9.34
2023-04-16T07:34:31.175Z,9.36
2023-04-16T07:35:31.486Z,9.40
2023-04-16T07:36:31.775Z,9.40
2023-04-16T07:37:32.072Z,9.41
2023-04-16T07:38:32.396Z,9.46
2023-04-16T07:39:32.665Z,9.46
2023-04-16T07:40:32.954Z,9.48
2023-04-16T07:41:33.154Z,9.50
2023-04-16T07:42:33.447Z,9.47
2023-04-16T07:43:33.761Z,9.50
2023-04-16T07:44:33.926Z,9.51
2023-04-16T07:45:34.258Z,9.54
2023-04-16T07:46:43.594Z,9.55
2023-04-16T07:47:34.744Z,9.56
2023-04-16T07:48:34.910Z,9.58
2023-04-16T07:49:35.080Z,9.61
2023-04-16T07:50:35.376Z,9.58
2023-04-16T07:51:35.675Z,9.61
2023-04-16T07:52:35.977Z,9.61
2023-04-16T07:53:36.171Z,9.62
2023-04-16T07:54:36.321Z,9.64
2023-04-16T07:55:36.623Z,9.68
2023-04-16T07:56:36.818Z,9.69
2023-04-16T07:57:37.177Z,9.64
2023-04-16T07:58:37.292Z,9.66
2023-04-16T07:59:37.465Z,9.69
2023-04-16T08:00:37.641Z,9.73
2023-04-16T08:01:37.937Z,9.74
2023-04-16T08:02:38.368Z,9.73
2023-04-16T08:03:38.634Z,9.76
2023-04-16T08:04:39.008Z,9.74
2023-04-16T08:05:39.036Z,9.76
2023-04-16T08:06:39.360Z,9.80
2023-04-16T08:07:39.500Z,9.86
2023-04-16T08:08:39.811Z,9.86
2023-04-16T08:09:39.988Z,9.86
2023-04-16T08:10:40.156Z,9.86
2023-04-16T08:11:40.332Z,9.87
2023-04-16T08:12:40.529Z,9.91
2023-04-16T08:13:40.854Z,9.84
2023-04-16T08:14:41.003Z,9.83
2023-04-16T08:15:41.352Z,9.87
2023-04-16T08:16:41.497Z,9.91
2023-04-16T08:17:41.721Z,9.92
2023-04-16T08:18:41.969Z,9.92
2023-04-16T08:19:42.138Z,9.95
2023-04-16T08:20:42.331Z,9.95
2023-04-16T08:21:42.497Z,10.01
2023-04-16T08:22:42.651Z,10.01
2023-04-16T08:23:42.888Z,10.02
2023-04-16T08:24:43.028Z,10.12
2023-04-16T08:25:43.196Z,10.09
2023-04-16T08:26:43.395Z,10.10
2023-04-16T08:27:43.610Z,10.16
2023-04-16T08:28:43.783Z,10.20
2023-04-16T08:29:43.941Z,10.31
2023-04-16T08:30:44.125Z,10.34
2023-04-16T08:31:44.405Z,10.33
2023-04-16T08:32:44.556Z,10.28
2023-04-16T08:33:44.715Z,10.38
2023-04-16T08:34:44.868Z,10.48
2023-04-16T08:35:45.073Z,10.54
2023-04-16T08:36:45.234Z,10.57
2023-04-16T08:37:45.422Z,10.61
2023-04-16T08:38:45.625Z,10.67
2023-04-16T08:39:45.776Z,10.61
2023-04-16T08:40:45.952Z,10.61
2023-04-16T08:41:46.159Z,10.68
2023-04-16T08:42:46.344Z,10.64
2023-04-16T08:43:46.561Z,10.69
2023-04-16T08:44:48.914Z,10.72
2023-04-16T08:45:46.914Z,10.64
2023-04-16T08:46:47.145Z,10.71
2023-04-16T08:47:47.337Z,10.76
2023-04-16T08:48:47.495Z,10.56
2023-04-16T08:49:47.668Z,10.61
2023-04-16T08:50:47.828Z,10.54
2023-04-16T08:51:48.021Z,10.57
2023-04-16T08:52:48.212Z,10.56
2023-04-16T08:53:48.411Z,10.61
2023-04-16T08:54:56.622Z,10.71
2023-04-16T08:55:48.742Z,10.74
2023-04-16T08:56:48.924Z,10.74
2023-04-16T08:57:49.115Z,10.76
2023-04-16T08:58:49.361Z,10.72
2023-04-16T08:59:49.465Z,10.78
2023-04-16T09:00:49.692Z,10.72
2023-04-16T09:01:49.994Z,10.68
2023-04-16T09:02:50.402Z,10.63
2023-04-16T09:03:50.352Z,10.64
2023-04-16T09:04:50.470Z,10.57
2023-04-16T09:05:50.632Z,10.63
2023-04-16T09:06:50.823Z,10.72
2023-04-16T09:07:51.012Z,10.72
2023-04-16T09:08:51.177Z,10.63
2023-04-16T09:09:51.335Z,10.61
2023-04-16T09:10:51.553Z,10.57
2023-04-16T09:11:51.695Z,10.57
2023-04-16T09:12:51.880Z,10.60
2023-04-16T09:13:52.084Z,10.67
2023-04-16T09:14:52.235Z,10.59
2023-04-16T09:15:52.464Z,10.64
2023-04-16T09:16:52.702Z,10.61
2023-04-16T09:17:52.894Z,10.69
2023-04-16T09:18:52.981Z,10.74
2023-04-16T09:19:53.126Z,10.78
2023-04-16T09:20:53.339Z,10.86
2023-04-16T09:21:53.514Z,10.82
2023-04-16T09:22:53.703Z,10.76
2023-04-16T09:23:53.940Z,10.72
2023-04-16T09:24:54.100Z,10.57
2023-04-16T09:25:54.283Z,10.63
2023-04-16T09:26:54.481Z,10.72
2023-04-16T09:27:54.678Z,10.81
2023-04-16T09:28:54.886Z,10.63
2023-04-16T09:29:55.054Z,10.64
2023-04-16T09:30:55.260Z,10.74
2023-04-16T09:31:55.520Z,10.71
2023-04-16T09:32:55.651Z,10.74
2023-04-16T09:33:55.851Z,10.79
2023-04-16T09:34:56.037Z,10.78
2023-04-16T09:35:56.216Z,10.60
2023-04-16T09:36:56.423Z,10.54
2023-04-16T09:37:56.596Z,10.53
2023-04-16T09:38:57.712Z,10.61
2023-04-16T09:39:56.993Z,10.71
2023-04-16T09:40:57.161Z,10.64
2023-04-16T09:41:57.354Z,10.75
2023-04-16T09:42:57.575Z,10.84
2023-04-16T09:43:57.747Z,10.89
2023-04-16T09:45:00.308Z,10.87
2023-04-16T09:45:58.123Z,10.84
2023-04-16T09:46:58.265Z,10.89
2023-04-16T09:47:58.496Z,10.96
2023-04-16T09:48:58.641Z,11.02
2023-04-16T09:49:58.800Z,11.12
2023-04-16T09:50:59.018Z,11.12
2023-04-16T09:51:59.212Z,11.08
2023-04-16T09:52:59.396Z,11.12
2023-04-16T09:53:59.600Z,11.19
2023-04-16T09:54:59.787Z,11.25
2023-04-16T09:55:59.966Z,11.26
2023-04-16T09:57:00.182Z,11.36
2023-04-16T09:58:00.383Z,11.25
2023-04-16T09:59:00.566Z,11.41
2023-04-16T10:00:00.724Z,11.44
2023-04-16T10:01:00.927Z,11.63
2023-04-16T10:02:14.369Z,11.77
2023-04-16T10:03:01.431Z,11.77
2023-04-16T10:04:01.701Z,11.70
2023-04-16T10:05:01.798Z,11.77
2023-04-16T10:06:02.029Z,11.48
2023-04-16T10:07:02.137Z,11.33
2023-04-16T10:08:02.336Z,11.29
2023-04-16T10:09:02.533Z,11.30
2023-04-16T10:10:02.781Z,11.50
2023-04-16T10:11:02.961Z,11.47
2023-04-16T10:12:03.146Z,11.27
2023-04-16T10:13:03.360Z,11.26
2023-04-16T10:14:03.562Z,11.47
2023-04-16T10:15:03.754Z,11.40
2023-04-16T10:16:03.954Z,11.32
2023-04-16T10:17:04.453Z,11.15
2023-04-16T10:18:04.390Z,11.26
2023-04-16T10:19:04.578Z,11.43
2023-04-16T10:20:04.796Z,11.19
2023-04-16T10:21:04.937Z,11.12
2023-04-16T10:22:05.148Z,11.23
2023-04-16T10:23:05.319Z,11.17
2023-04-16T10:24:05.505Z,11.10
2023-04-16T10:25:05.686Z,11.02
2023-04-16T10:26:05.906Z,11.11
2023-04-16T10:27:06.119Z,11.22
2023-04-16T10:28:06.279Z,11.19
2023-04-16T10:29:06.441Z,11.11
2023-04-16T10:30:06.640Z,11.05
2023-04-16T10:31:06.898Z,11.12
2023-04-16T10:32:07.028Z,11.18
2023-04-16T10:33:07.231Z,11.23
2023-04-16T10:34:07.367Z,11.17
2023-04-16T10:35:07.623Z,11.26
2023-04-16T10:36:08.204Z,11.15
2023-04-16T10:37:07.991Z,11.18
2023-04-16T10:38:08.122Z,11.12
2023-04-16T10:39:08.360Z,11.15
2023-04-16T10:40:08.550Z,11.18
2023-04-16T10:41:08.657Z,11.32
2023-04-16T10:42:08.869Z,11.32
2023-04-16T10:43:09.055Z,11.35
2023-04-16T10:44:09.256Z,11.37
2023-04-16T10:45:09.407Z,11.37
2023-04-16T10:46:09.673Z,11.43
2023-04-16T10:47:09.782Z,11.27
2023-04-16T10:48:10.091Z,11.19
2023-04-16T10:49:10.211Z,11.23
2023-04-16T10:50:10.305Z,11.25
2023-04-16T10:51:10.504Z,11.23
2023-04-16T10:52:10.702Z,11.26
2023-04-16T10:53:10.856Z,11.27
2023-04-16T10:54:11.054Z,11.27
2023-04-16T10:55:11.242Z,11.29
2023-04-16T10:56:11.447Z,11.36
2023-04-16T10:57:11.669Z,11.40
2023-04-16T10:58:11.822Z,11.40
2023-04-16T10:59:12.126Z,11.36
2023-04-16T11:00:12.212Z,11.41
2023-04-16T11:01:12.443Z,11.48
2023-04-16T11:02:12.646Z,11.55
2023-04-16T11:03:12.888Z,11.48
2023-04-16T11:04:13.108Z,11.44
2023-04-16T11:05:13.144Z,11.30
2023-04-16T11:06:13.324Z,11.30
2023-04-16T11:07:13.529Z,11.43
2023-04-16T11:08:13.688Z,11.45
2023-04-16T11:09:13.952Z,11.51
2023-04-16T11:10:14.080Z,11.47
2023-04-16T11:11:14.279Z,11.36
2023-04-16T11:12:14.479Z,11.33
2023-04-16T11:13:14.621Z,11.32
2023-04-16T11:14:14.812Z,11.27
2023-04-16T11:15:15.001Z,11.35
2023-04-16T11:16:15.205Z,11.32
2023-04-16T11:17:15.382Z,11.25
2023-04-16T11:18:15.550Z,11.30
2023-04-16T11:19:15.706Z,11.32
2023-04-16T11:20:19.568Z,11.25
2023-04-16T11:21:16.062Z,11.14
2023-04-16T11:22:16.269Z,11.22
2023-04-16T11:23:16.454Z,11.29
2023-04-16T11:24:16.649Z,11.26
2023-04-16T11:25:16.876Z,11.25
2023-04-16T11:26:17.002Z,11.27
2023-04-16T11:27:17.256Z,11.33
2023-04-16T11:28:17.376Z,11.29
2023-04-16T11:29:17.605Z,11.29
2023-04-16T11:30:17.744Z,11.17
2023-04-16T11:31:17.965Z,11.12
2023-04-16T11:32:18.172Z,11.11
2023-04-16T11:33:18.292Z,11.08
2023-04-16T11:34:18.483Z,11.14
2023-04-16T11:35:18.673Z,11.07
2023-04-16T11:36:18.854Z,11.05
2023-04-16T11:37:19.096Z,11.11
2023-04-16T11:38:19.221Z,11.05
2023-04-16T11:39:19.432Z,10.94
2023-04-16T11:40:19.588Z,10.93
2023-04-16T11:41:19.794Z,10.92
2023-04-16T11:42:20.005Z,10.90
2023-04-16T11:43:20.129Z,10.96
2023-04-16T11:44:20.316Z,10.87
2023-04-16T11:45:20.496Z,10.90
2023-04-16T11:46:27.341Z,10.90
2023-04-16T11:47:20.979Z,10.90
2023-04-16T11:48:21.095Z,10.93
2023-04-16T11:49:21.248Z,10.92
2023-04-16T11:50:21.427Z,10.87
2023-04-16T11:51:21.607Z,10.82
2023-04-16T11:52:21.906Z,10.87
2023-04-16T11:53:21.995Z,10.90
2023-04-16T11:54:22.189Z,10.89
2023-04-16T11:55:22.387Z,10.92
2023-04-16T11:56:22.546Z,10.86
2023-04-16T11:57:22.753Z,10.78
2023-04-16T11:58:22.931Z,10.82
2023-04-16T11:59:23.201Z,10.87
2023-04-16T12:00:24.894Z,10.86
2023-04-16T12:01:23.448Z,10.84
2023-04-16T12:02:23.760Z,10.89
2023-04-16T12:03:24.003Z,10.94
2023-04-16T12:04:24.086Z,10.92
2023-04-16T12:05:24.175Z,10.89
2023-04-16T12:06:24.529Z,10.86
2023-04-16T12:07:24.562Z,10.86
2023-04-16T12:08:24.713Z,10.87
2023-04-16T12:09:24.903Z,10.84
2023-04-16T12:10:25.111Z,10.82
2023-04-16T12:11:25.292Z,10.89
2023-04-16T12:12:25.493Z,10.89
2023-04-16T12:13:25.684Z,10.94
2023-04-16T12:14:25.869Z,11.00
2023-04-16T12:15:26.038Z,11.05
2023-04-16T12:16:26.263Z,10.92
2023-04-16T12:17:26.458Z,10.89
2023-04-16T12:18:26.596Z,10.92
2023-04-16T12:19:26.754Z,10.94
2023-04-16T12:20:26.966Z,11.04
2023-04-16T12:21:27.145Z,11.02
2023-04-16T12:22:27.340Z,10.99
2023-04-16T12:23:27.499Z,11.00
2023-04-16T12:24:27.686Z,10.97
2023-04-16T12:25:27.838Z,10.97
2023-04-16T12:26:28.012Z,11.05
2023-04-16T12:27:28.253Z,11.08
2023-04-16T12:28:28.409Z,11.14
2023-04-16T12:29:28.613Z,11.18
2023-04-16T12:30:28.766Z,11.23
2023-04-16T12:31:28.984Z,11.27
2023-04-16T12:32:29.179Z,11.25
2023-04-16T12:33:29.336Z,11.22
2023-04-16T12:34:48.953Z,11.15
2023-04-16T12:35:29.663Z,11.10
2023-04-16T12:36:29.855Z,11.08
2023-04-16T12:37:30.074Z,11.04
2023-04-16T12:38:30.236Z,11.12
2023-04-16T12:39:30.418Z,11.18
2023-04-16T12:40:30.624Z,11.07
2023-04-16T12:41:30.801Z,11.07
2023-04-16T12:42:31.005Z,11.18
2023-04-16T12:43:31.158Z,11.15
2023-04-16T12:44:31.349Z,11.19
2023-04-16T12:45:31.544Z,11.17
2023-04-16T12:46:31.783Z,11.15
2023-04-16T12:47:31.953Z,11.14
2023-04-16T12:48:32.100Z,11.23
2023-04-16T12:49:32.316Z,11.25
2023-04-16T12:50:32.478Z,11.19
2023-04-16T12:51:32.676Z,11.25
2023-04-16T12:52:32.845Z,11.33
2023-04-16T12:53:33.014Z,11.32
2023-04-16T12:54:33.208Z,11.35
2023-04-16T12:55:33.403Z,11.33
2023-04-16T12:56:33.574Z,11.25
2023-04-16T12:57:33.757Z,11.30
2023-04-16T12:58:33.956Z,11.37
2023-04-16T12:59:34.099Z,11.30
2023-04-16T13:00:34.290Z,11.25
2023-04-16T13:01:34.530Z,11.23
2023-04-16T13:02:34.861Z,11.30
2023-04-16T13:03:34.970Z,11.40
2023-04-16T13:04:35.112Z,11.45
2023-04-16T13:05:35.186Z,11.51
2023-04-16T13:06:35.400Z,11.52
2023-04-16T13:07:35.587Z,11.50
2023-04-16T13:08:35.784Z,11.51
2023-04-16T13:09:37.708Z,11.54
2023-04-16T13:10:36.149Z,11.63
2023-04-16T13:11:36.364Z,11.41